createdAt,value
2023-03-05T00:02:42.955Z,25.95
2023-03-05T00:05:43.899Z,25.77
2023-03-05T00:08:45.091Z,23.73
2023-03-05T00:11:45.881Z,25.52
2023-03-05T00:14:46.942Z,26.08
2023-03-05T00:17:47.961Z,26.77
2023-03-05T00:20:49.905Z,26.88
2023-03-05T00:23:51.897Z,25.65
2023-03-05T00:26:53.381Z,24.63
2023-03-05T00:29:54.388Z,25.02
2023-03-05T00:32:55.516Z,26.13
2023-03-05T00:35:57.378Z,25.42
2023-03-05T00:38:59.115Z,24.80
2023-03-05T00:42:00.116Z,25.63
2023-03-05T00:45:01.968Z,25.75
2023-03-05T00:48:04.916Z,24.48
2023-03-05T00:51:06.160Z,25.67
2023-03-05T00:54:07.488Z,25.50
2023-03-05T00:57:08.394Z,26.08
2023-03-05T01:00:11.950Z,26.08
2023-03-05T01:03:13.080Z,26.42
2023-03-05T01:06:16.594Z,26.13
2023-03-05T01:09:17.933Z,26.63
2023-03-05T01:12:19.154Z,25.83
2023-03-05T01:15:19.882Z,26.48
2023-03-05T01:18:21.283Z,26.77
2023-03-05T01:21:22.191Z,25.83
2023-03-05T01:24:23.369Z,24.92
2023-03-05T01:27:24.494Z,25.45
2023-03-05T01:30:25.266Z,26.55
2023-03-05T01:33:26.588Z,25.98
2023-03-05T01:36:27.562Z,26.50
2023-03-05T01:39:28.833Z,28.10
2023-03-05T01:42:30.010Z,27.27
2023-03-05T01:45:34.050Z,26.20
2023-03-05T01:48:34.954Z,24.95
2023-03-05T01:51:45.898Z,26.42
2023-03-05T01:54:53.688Z,26.77
2023-03-05T02:01:02.591Z,27.38
2023-03-05T02:04:04.091Z,26.23
2023-03-05T02:07:06.067Z,26.90
2023-03-05T02:10:30.529Z,27.50
2023-03-05T02:13:38.391Z,25.73
2023-03-05T02:16:39.761Z,27.38
2023-03-05T02:19:57.373Z,28.23
2023-03-05T02:22:58.797Z,27.02
2023-03-05T02:26:00.326Z,28.67
2023-03-05T02:29:05.504Z,27.85
2023-03-05T02:32:07.066Z,27.15
2023-03-05T02:35:09.076Z,28.65
2023-03-05T02:38:11.981Z,27.23
2023-03-05T02:41:13.914Z,26.63
2023-03-05T02:44:15.070Z,26.95
2023-03-05T02:47:15.809Z,26.90
2023-03-05T02:50:18.005Z,27.98
2023-03-05T02:53:19.401Z,27.40
2023-03-05T02:56:20.768Z,27.75
2023-03-05T02:59:21.639Z,29.08
2023-03-05T03:02:22.906Z,28.13
2023-03-05T03:05:23.920Z,28.02
2023-03-05T03:08:24.602Z,26.58
2023-03-05T03:11:25.454Z,27.67
2023-03-05T03:14:26.398Z,28.80
2023-03-05T03:17:27.581Z,30.20
2023-03-05T03:20:28.837Z,27.35
2023-03-05T03:23:30.898Z,27.90
2023-03-05T03:26:32.070Z,26.42
2023-03-05T03:29:33.535Z,26.23
2023-03-05T03:32:34.553Z,26.23
2023-03-05T03:35:35.844Z,27.00
2023-03-05T03:38:37.137Z,27.20
2023-03-05T03:41:43.430Z,26.50
2023-03-05T03:44:44.815Z,26.53
2023-03-05T03:47:45.534Z,28.25
2023-03-05T03:50:46.351Z,25.63
2023-03-05T03:53:47.250Z,25.92
2023-03-05T03:56:48.645Z,27.75
2023-03-05T03:59:50.550Z,27.58
2023-03-05T04:02:51.410Z,28.63
2023-03-05T04:05:52.204Z,26.98
2023-03-05T04:08:53.495Z,27.42
2023-03-05T04:11:54.597Z,28.23
2023-03-05T04:14:55.628Z,28.20
2023-03-05T04:17:56.871Z,25.30
2023-03-05T04:20:58.082Z,27.77
2023-03-05T04:23:59.323Z,27.95
2023-03-05T04:27:00.064Z,28.65
2023-03-05T04:30:01.602Z,28.45
2023-03-05T04:33:02.376Z,28.17
2023-03-05T04:36:03.822Z,30.73
2023-03-05T04:39:05.202Z,29.00
2023-03-05T04:42:09.453Z,29.15
2023-03-05T04:45:11.189Z,29.40
2023-03-05T04:48:12.883Z,29.65
2023-03-05T04:51:13.679Z,28.83
2023-03-05T04:54:14.866Z,28.95
2023-03-05T04:57:15.741Z,27.60
2023-03-05T05:00:18.686Z,31.13
2023-03-05T05:03:19.550Z,29.67
2023-03-05T05:06:20.632Z,31.05
2023-03-05T05:09:22.029Z,29.63
2023-03-05T05:12:22.788Z,29.02
2023-03-05T05:15:24.502Z,29.23
2023-03-05T05:18:27.549Z,26.55
2023-03-05T05:21:28.409Z,28.40
2023-03-05T05:24:29.690Z,28.58
2023-03-05T05:27:30.402Z,26.80
2023-03-05T05:30:31.171Z,28.23
2023-03-05T05:33:32.365Z,28.40
2023-03-05T05:36:33.179Z,29.00
2023-03-05T05:39:34.956Z,28.85
2023-03-05T05:42:35.957Z,29.27
2023-03-05T05:45:40.962Z,28.65
2023-03-05T05:48:42.770Z,28.38
2023-03-05T05:51:44.151Z,29.13
2023-03-05T05:54:45.193Z,27.23
2023-03-05T05:57:46.436Z,27.75
2023-03-05T06:00:47.228Z,27.00
2023-03-05T06:03:49.108Z,27.30
2023-03-05T06:06:50.215Z,28.75
2023-03-05T06:09:51.305Z,28.88
2023-03-05T06:12:51.920Z,29.25
2023-03-05T06:15:58.766Z,27.42
2023-03-05T06:19:00.268Z,28.88
2023-03-05T06:22:00.863Z,27.60
2023-03-05T06:25:01.576Z,27.75
2023-03-05T06:28:02.735Z,29.77
2023-03-05T06:31:22.715Z,30.15
2023-03-05T06:34:23.805Z,27.63
2023-03-05T06:37:24.618Z,28.17
2023-03-05T06:40:25.896Z,29.10
2023-03-05T06:43:27.212Z,30.10
2023-03-05T06:46:31.955Z,29.48
2023-03-05T06:49:33.346Z,29.23
2023-03-05T06:52:34.382Z,30.42
2023-03-05T06:55:39.883Z,26.98
2023-03-05T06:58:41.528Z,29.48
2023-03-05T07:01:43.693Z,28.33
2023-03-05T07:04:45.017Z,29.55
2023-03-05T07:07:46.025Z,29.13
2023-03-05T07:10:46.746Z,30.85
2023-03-05T07:13:48.317Z,30.05
2023-03-05T07:16:50.442Z,29.20
2023-03-05T07:19:51.640Z,29.13
2023-03-05T07:22:52.922Z,31.20
2023-03-05T07:25:54.159Z,31.80
2023-03-05T07:28:55.780Z,30.02
2023-03-05T07:31:56.749Z,29.77
2023-03-05T07:34:57.576Z,30.55
2023-03-05T07:37:58.428Z,29.08
2023-03-05T07:41:09.578Z,29.35
2023-03-05T07:44:10.419Z,29.75
2023-03-05T07:47:11.378Z,28.67
2023-03-05T07:50:12.792Z,28.77
2023-03-05T07:53:15.196Z,26.35
2023-03-05T07:56:32.659Z,25.25
2023-03-05T07:59:33.843Z,25.20
2023-03-05T08:02:35.159Z,27.35
2023-03-05T08:05:40.467Z,27.92
2023-03-05T08:08:41.374Z,26.63
2023-03-05T08:11:42.536Z,27.90
2023-03-05T08:14:43.369Z,26.38
2023-03-05T08:17:44.466Z,25.38
2023-03-05T08:20:45.222Z,25.45
2023-03-05T08:23:47.003Z,27.10
2023-03-05T08:26:47.721Z,26.13
2023-03-05T08:29:48.530Z,27.55
2023-03-05T08:32:50.297Z,25.58
2023-03-05T08:35:51.140Z,27.33
2023-03-05T08:38:52.475Z,27.02
2023-03-05T08:41:53.408Z,26.23
2023-03-05T08:44:54.365Z,27.30
2023-03-05T08:47:57.404Z,27.20
2023-03-05T08:51:05.765Z,27.23
2023-03-05T08:54:07.698Z,28.58
2023-03-05T08:57:08.857Z,27.90
2023-03-05T09:00:12.755Z,27.25
2023-03-05T09:03:14.096Z,26.15
2023-03-05T09:06:16.114Z,26.15
2023-03-05T09:09:16.937Z,30.80
2023-03-05T09:12:17.766Z,26.08
2023-03-05T09:15:18.504Z,28.55
2023-03-05T09:18:19.928Z,27.63
2023-03-05T09:21:21.168Z,26.38
2023-03-05T09:24:21.922Z,26.92
2023-03-05T09:27:23.094Z,25.38
2023-03-05T09:30:24.054Z,25.30
2023-03-05T09:33:25.182Z,24.88
2023-03-05T09:36:30.173Z,25.52
2023-03-05T09:39:31.163Z,25.95
2023-03-05T09:43:02.522Z,27.50
2023-03-05T09:46:44.052Z,25.45
2023-03-05T09:50:14.994Z,25.52
2023-03-05T09:53:37.458Z,26.38
2023-03-05T09:56:57.032Z,26.40
2023-03-05T10:00:09.916Z,28.38
2023-03-05T10:03:42.407Z,25.75
2023-03-05T10:07:02.889Z,24.98
2023-03-05T10:10:14.378Z,25.55
2023-03-05T10:13:32.426Z,25.60
2023-03-05T10:17:17.820Z,25.40
2023-03-05T10:20:21.550Z,25.42
2023-03-05T10:24:11.628Z,25.25
2023-03-05T10:27:41.177Z,26.88
2023-03-05T10:31:07.508Z,25.20
2023-03-05T10:34:25.660Z,24.25
2023-03-05T10:38:12.687Z,25.73
2023-03-05T10:44:36.440Z,24.08
2023-03-05T10:47:59.565Z,25.40
2023-03-05T10:51:17.018Z,25.10
2023-03-05T10:57:34.102Z,25.05
2023-03-05T11:00:34.953Z,27.63
2023-03-05T11:04:04.364Z,23.70
2023-03-05T11:07:25.346Z,25.98
2023-03-05T11:10:26.784Z,22.95
2023-03-05T11:13:29.368Z,18.45
2023-03-05T11:16:34.087Z,16.70
2023-03-05T11:19:35.515Z,11.95
2023-03-05T11:22:36.544Z,9.43
2023-03-05T11:26:13.424Z,14.25
2023-03-05T11:29:31.064Z,15.93
2023-03-05T11:32:32.174Z,16.10
2023-03-05T11:35:38.176Z,17.27
2023-03-05T11:39:08.066Z,18.40
2023-03-05T11:42:25.177Z,18.77
2023-03-05T11:45:28.788Z,16.20
2023-03-05T11:48:37.189Z,16.15
2023-03-05T11:51:48.662Z,15.98
2023-03-05T11:54:57.246Z,15.68
2023-03-05T11:58:26.726Z,14.43
2023-03-05T12:01:33.134Z,13.93
2023-03-05T12:04:36.545Z,16.60
2023-03-05T12:07:46.593Z,15.75
2023-03-05T12:10:47.849Z,15.35
2023-03-05T12:14:38.830Z,13.63
2023-03-05T12:18:10.389Z,14.13
2023-03-05T12:21:39.763Z,13.20
2023-03-05T12:24:41.105Z,14.38
2023-03-05T12:27:42.488Z,14.63
2023-03-05T12:30:43.632Z,11.80
2023-03-05T12:33:44.753Z,10.35
2023-03-05T12:36:46.421Z,9.85
2023-03-05T12:40:23.039Z,11.27
2023-03-05T12:43:30.120Z,10.80
2023-03-05T12:46:44.454Z,9.95
2023-03-05T12:49:47.479Z,9.23
2023-03-05T12:52:48.777Z,9.52
2023-03-05T12:56:22.261Z,10.05
2023-03-05T12:59:48.335Z,10.70
2023-03-05T13:02:58.690Z,8.77
2023-03-05T13:06:01.044Z,8.38
2023-03-05T13:09:15.899Z,7.82
2023-03-05T13:12:17.682Z,8.50
2023-03-05T13:15:18.751Z,10.25
2023-03-05T13:18:24.159Z,11.35
2023-03-05T13:21:29.846Z,11.73
2023-03-05T13:24:31.267Z,11.45
2023-03-05T13:27:33.615Z,10.75
2023-03-05T13:30:34.856Z,11.05
2023-03-05T13:33:36.680Z,11.98
2023-03-05T13:36:39.814Z,13.02
2023-03-05T13:40:15.686Z,13.20
2023-03-05T13:43:20.847Z,12.60
2023-03-05T13:46:38.817Z,13.18
2023-03-05T13:49:39.655Z,13.73
2023-03-05T13:52:40.511Z,13.95
2023-03-05T13:55:42.101Z,17.35
2023-03-05T13:58:57.367Z,14.10
2023-03-05T14:02:01.550Z,13.52
2023-03-05T14:05:03.201Z,13.52
2023-03-05T14:08:04.689Z,12.57
2023-03-05T14:11:18.739Z,9.40
2023-03-05T14:14:22.158Z,9.27
2023-03-05T14:17:40.895Z,9.52
2023-03-05T14:21:10.008Z,10.00
2023-03-05T14:24:23.582Z,10.57
2023-03-05T14:27:25.144Z,11.18
2023-03-05T14:30:26.755Z,10.38
2023-03-05T14:33:32.626Z,12.15
2023-03-05T14:36:34.873Z,11.55
2023-03-05T14:39:50.020Z,9.52
2023-03-05T14:43:10.641Z,10.27
2023-03-05T14:46:13.490Z,10.27
2023-03-05T14:49:14.649Z,9.90
2023-03-05T14:52:25.880Z,9.07
2023-03-05T14:55:33.875Z,9.45
2023-03-05T14:58:37.830Z,9.25
2023-03-05T15:01:38.839Z,9.68
2023-03-05T15:04:40.713Z,10.00
2023-03-05T15:07:44.307Z,9.43
2023-03-05T15:10:45.532Z,10.10
2023-03-05T15:13:46.631Z,10.52
2023-03-05T15:16:48.928Z,9.38
2023-03-05T15:19:50.466Z,9.60
2023-03-05T15:22:51.780Z,9.40
2023-03-05T15:25:52.587Z,8.60
2023-03-05T15:28:53.401Z,9.20
2023-03-05T15:31:54.239Z,8.88
2023-03-05T15:34:55.893Z,7.97
2023-03-05T15:37:58.267Z,8.55
2023-03-05T15:41:01.722Z,7.95
2023-03-05T15:44:02.982Z,8.40
2023-03-05T15:47:03.872Z,7.38
2023-03-05T15:50:05.881Z,8.23
2023-03-05T15:53:08.201Z,7.07
2023-03-05T15:56:16.651Z,8.48
2023-03-05T15:59:18.689Z,8.77
2023-03-05T16:02:19.547Z,8.02
2023-03-05T16:05:20.654Z,7.97
2023-03-05T16:08:21.372Z,8.25
2023-03-05T16:11:22.668Z,8.20
2023-03-05T16:14:27.952Z,8.90
2023-03-05T16:17:29.187Z,9.35
2023-03-05T16:20:30.208Z,8.73
2023-03-05T16:23:31.398Z,8.20
2023-03-05T16:26:37.351Z,7.80
2023-03-05T16:29:38.647Z,7.78
2023-03-05T16:32:39.433Z,7.53
2023-03-05T16:35:40.646Z,7.72
2023-03-05T16:38:41.426Z,8.10
2023-03-05T16:41:42.248Z,9.15
2023-03-05T16:44:44.916Z,7.90
2023-03-05T16:47:45.840Z,8.32
2023-03-05T16:50:46.625Z,9.10
2023-03-05T16:53:47.427Z,10.60
2023-03-05T16:56:48.725Z,10.85
2023-03-05T16:59:50.241Z,9.80
2023-03-05T17:02:51.309Z,9.57
2023-03-05T17:05:51.912Z,8.25
2023-03-05T17:08:54.782Z,8.75
2023-03-05T17:11:55.805Z,9.60
2023-03-05T17:14:56.936Z,8.88
2023-03-05T17:17:58.210Z,7.85
2023-03-05T17:21:02.339Z,8.10
2023-03-05T17:24:03.977Z,8.35
2023-03-05T17:27:05.085Z,8.23
2023-03-05T17:30:08.483Z,8.65
2023-03-05T17:33:11.571Z,8.57
2023-03-05T17:36:19.413Z,7.95
2023-03-05T17:39:20.735Z,7.88
2023-03-05T17:42:21.650Z,8.77
2023-03-05T17:45:23.096Z,9.80
2023-03-05T17:48:24.092Z,8.75
2023-03-05T17:51:24.830Z,8.13
2023-03-05T17:54:26.305Z,9.27
2023-03-05T17:57:27.205Z,9.88
2023-03-05T18:00:30.453Z,8.38
2023-03-05T18:03:32.103Z,9.32
2023-03-05T18:06:33.374Z,9.05
2023-03-05T18:09:34.349Z,8.95
2023-03-05T18:12:36.248Z,8.95
2023-03-05T18:15:40.620Z,8.82
2023-03-05T18:18:42.022Z,11.43
2023-03-05T18:21:43.048Z,12.95
2023-03-05T18:24:44.175Z,12.52
2023-03-05T18:27:45.468Z,12.85
2023-03-05T18:30:48.063Z,10.30
2023-03-05T18:33:50.489Z,9.13
2023-03-05T18:36:51.770Z,9.65
2023-03-05T18:39:52.888Z,10.30
2023-03-05T18:42:54.625Z,8.20
2023-03-05T18:45:57.080Z,8.93
2023-03-05T18:48:58.093Z,8.48
2023-03-05T18:51:58.876Z,8.35
2023-03-05T18:55:00.189Z,10.10
2023-03-05T18:58:01.208Z,9.10
2023-03-05T19:01:03.880Z,10.40
2023-03-05T19:04:05.272Z,9.30
2023-03-05T19:07:06.409Z,9.65
2023-03-05T19:10:11.953Z,10.25
2023-03-05T19:13:40.742Z,10.65
2023-03-05T19:16:44.253Z,10.15
2023-03-05T19:19:51.374Z,10.52
2023-03-05T19:22:52.474Z,11.13
2023-03-05T19:25:53.470Z,11.15
2023-03-05T19:28:55.357Z,8.82
2023-03-05T19:31:56.210Z,9.07
2023-03-05T19:34:59.055Z,11.10
2023-03-05T19:38:00.290Z,9.95
2023-03-05T19:41:01.048Z,9.52
2023-03-05T19:44:02.891Z,9.88
2023-03-05T19:47:04.191Z,9.52
2023-03-05T19:50:06.357Z,9.15
2023-03-05T19:53:07.360Z,9.98
2023-03-05T19:56:10.165Z,9.43
2023-03-05T19:59:11.000Z,9.73
2023-03-05T20:02:13.320Z,10.82
2023-03-05T20:05:14.598Z,8.38
2023-03-05T20:08:16.139Z,9.20
2023-03-05T20:11:19.049Z,8.75
2023-03-05T20:14:20.417Z,8.70
2023-03-05T20:17:21.697Z,9.20
2023-03-05T20:20:22.568Z,9.38
2023-03-05T20:23:24.681Z,9.80
2023-03-05T20:26:27.467Z,8.65
2023-03-05T20:29:28.727Z,9.25
2023-03-05T20:32:29.677Z,10.35
2023-03-05T20:35:30.638Z,9.40
2023-03-05T20:38:31.823Z,9.27
2023-03-05T20:41:36.483Z,9.55
2023-03-05T20:44:37.543Z,9.95
2023-03-05T20:47:42.455Z,8.82
2023-03-05T20:50:43.742Z,10.85
2023-03-05T20:53:45.878Z,11.50
2023-03-05T20:56:47.888Z,10.38
2023-03-05T20:59:48.913Z,11.68
2023-03-05T21:02:51.848Z,11.75
2023-03-05T21:05:56.548Z,11.60
2023-03-05T21:08:58.936Z,11.38
2023-03-05T21:12:00.401Z,11.23
2023-03-05T21:15:01.459Z,11.00
2023-03-05T21:18:02.259Z,11.38
2023-03-05T21:21:03.829Z,16.95
2023-03-05T21:24:05.573Z,16.90
2023-03-05T21:27:06.550Z,12.93
2023-03-05T21:30:09.635Z,11.07
2023-03-05T21:33:15.750Z,11.27
2023-03-05T21:36:19.024Z,11.13
2023-03-05T21:39:20.242Z,11.57
2023-03-05T21:42:20.918Z,9.90
2023-03-05T21:45:27.132Z,11.25
2023-03-05T21:48:28.842Z,13.85
2023-03-05T21:52:09.748Z,11.55
2023-03-05T21:55:15.825Z,11.43
2023-03-05T21:58:16.595Z,11.63
2023-03-05T22:01:19.607Z,12.65
2023-03-05T22:04:20.841Z,13.15
2023-03-05T22:07:22.074Z,10.35
2023-03-05T22:10:23.286Z,11.43
2023-03-05T22:13:24.390Z,10.73
2023-03-05T22:16:27.532Z,10.13
2023-03-05T22:19:29.969Z,10.85
2023-03-05T22:22:31.021Z,10.40
2023-03-05T22:25:32.891Z,11.05
2023-03-05T22:28:35.866Z,10.98
2023-03-05T22:31:36.728Z,9.95
2023-03-05T22:34:37.722Z,8.65
2023-03-05T22:37:40.329Z,9.80
2023-03-05T22:40:44.762Z,9.43
2023-03-05T22:43:47.168Z,12.13
2023-03-05T22:46:48.265Z,13.80
2023-03-05T22:49:49.314Z,15.55
2023-03-05T22:52:50.999Z,12.95
2023-03-05T22:55:52.193Z,13.27
2023-03-05T22:58:52.914Z,12.23
2023-03-05T23:01:54.207Z,13.68
2023-03-05T23:05:00.532Z,13.05
2023-03-05T23:08:01.444Z,12.65
2023-03-05T23:11:12.073Z,14.18
2023-03-05T23:14:13.113Z,13.88
2023-03-05T23:17:14.607Z,14.23
2023-03-05T23:20:24.009Z,12.88
2023-03-05T23:23:24.821Z,13.50
2023-03-05T23:26:25.809Z,13.10
2023-03-05T23:30:23.704Z,13.13
2023-03-05T23:33:25.171Z,12.50
2023-03-05T23:36:26.681Z,13.95
2023-03-05T23:39:27.636Z,12.65
2023-03-05T23:42:28.279Z,13.70
2023-03-05T23:45:30.281Z,13.45
2023-03-05T23:48:31.381Z,13.75
2023-03-05T23:51:32.393Z,15.07
2023-03-05T23:54:33.258Z,13.13
2023-03-05T23:57:35.762Z,13.88
